Thunder radar more information blitzortung!


Radar de pluja more information rain snow radar


Visita la nostra xarxa de llocs de meteo:

Template documentation
and downloads

And another site



No particular awareness of the weather is required.    There are no Weather-warnings

Pagina Historial Weather Underground text

Diari Resum Marc 13, 2016 Unitats:  Mètric    Imperial   Tant
« Previous Dia
SegĂźent Dia »
Diari Setmana Mensual Anual Personalitzada
  Maxima: Minima: Media:
Temperatura: 16.3 °C 4.6 °C 10.7 °C
Punt de rosada: 2.3 °C -1.0 °C 1.2 °C
Humitat: 71 % 35 % 53 %
Wind Speed: 20.4 km/h 0.0 km/h 7.3 km/h
RĂ fegues de vent: 20.4 km/h - -
Vent:- - ESE
Pression baro: 1021.9 hPa 1018.8 hPa -
Precipitacions: 0.0 mm    
Historical Graphs
 
 
Dades de taula per Marc 13, 2016
Temps Temperatura Punt de rosada Pression baro Vent Wind Speed RĂ fegues de vent Humitat Rainfall Rate (Hourly)
13:42 15.5 °C 2.3 °C 1019.9 hPa NW 7.4 km/h 7.4 km/h 41 % 0.0 mm
13:47 15.4 °C 2.2 °C 1019.9 hPa SW 5.6 km/h 5.6 km/h 41 % 0.0 mm
13:52 15.3 °C 2.1 °C 1019.9 hPa SW 5.6 km/h 5.6 km/h 41 % 0.0 mm
14:02 15.6 °C 1.7 °C 1019.9 hPa SW 9.3 km/h 9.3 km/h 39 % 0.0 mm
14:07 15.9 °C 2.3 °C 1019.9 hPa WNW 2.6 km/h 2.6 km/h 40 % 0.0 mm
14:12 15.8 °C 1.5 °C 1019.9 hPa WSW 13.0 km/h 13.0 km/h 38 % 0.0 mm
14:17 15.6 °C 1.3 °C 1019.9 hPa NNE 5.6 km/h 5.6 km/h 38 % 0.0 mm
14:22 16.0 °C 1.7 °C 1019.9 hPa SSW 7.9 km/h 7.9 km/h 38 % 0.0 mm
14:27 16.2 °C 1.5 °C 1019.9 hPa SW 7.4 km/h 7.4 km/h 37 % 0.0 mm
14:32 16.3 °C 1.6 °C 1019.9 hPa WSW 7.6 km/h 7.6 km/h 37 % 0.0 mm
14:37 15.8 °C 0.7 °C 1019.9 hPa WSW 3.5 km/h 3.5 km/h 36 % 0.0 mm
14:42 15.8 °C 0.3 °C 1019.9 hPa WSW 9.3 km/h 9.3 km/h 35 % 0.0 mm
14:47 16.2 °C 1.1 °C 1019.9 hPa SSW 3.7 km/h 3.7 km/h 36 % 0.0 mm
14:52 16.3 °C 1.2 °C 1019.9 hPa South 11.1 km/h 11.1 km/h 36 % 0.0 mm
14:57 16.3 °C 0.8 °C 1019.9 hPa ESE 9.3 km/h 9.3 km/h 35 % 0.0 mm
15:02 16.2 °C 0.7 °C 1019.9 hPa East 5.6 km/h 5.6 km/h 35 % 0.0 mm
15:07 15.3 °C 0.3 °C 1019.9 hPa ENE 11.9 km/h 11.9 km/h 36 % 0.0 mm
15:12 14.8 °C -0.2 °C 1019.9 hPa ESE 17.2 km/h 17.2 km/h 36 % 0.0 mm
15:17 14.6 °C 0.1 °C 1019.9 hPa East 18.5 km/h 18.5 km/h 37 % 0.0 mm
15:22 14.1 °C -0.4 °C 1019.9 hPa ESE 9.3 km/h 9.3 km/h 37 % 0.0 mm
15:27 14.0 °C -0.1 °C 1019.9 hPa SE 13.0 km/h 13.0 km/h 38 % 0.0 mm
15:32 13.6 °C -0.4 °C 1019.9 hPa ENE 16.7 km/h 16.7 km/h 38 % 0.0 mm
15:37 13.5 °C -0.2 °C 1019.9 hPa ESE 16.7 km/h 16.7 km/h 39 % 0.0 mm
15:42 13.9 °C 0.2 °C 1019.9 hPa ESE 9.3 km/h 9.3 km/h 39 % 0.0 mm
15:47 13.9 °C 0.5 °C 1019.9 hPa SE 13.0 km/h 13.0 km/h 40 % 0.0 mm
15:52 13.6 °C 0.2 °C 1019.9 hPa ESE 14.8 km/h 14.8 km/h 40 % 0.0 mm
15:57 12.8 °C -0.2 °C 1019.9 hPa ESE 12.6 km/h 12.6 km/h 41 % 0.0 mm
16:02 12.7 °C -0.2 °C 1019.9 hPa ESE 16.7 km/h 16.7 km/h 41 % 0.0 mm
16:07 12.4 °C -0.2 °C 1019.9 hPa ESE 18.5 km/h 18.5 km/h 42 % 0.0 mm
16:12 12.3 °C -0.3 °C 1019.9 hPa ENE 13.0 km/h 13.0 km/h 42 % 0.0 mm
16:22 12.1 °C 0.5 °C 1019.9 hPa ESE 16.7 km/h 16.7 km/h 45 % 0.0 mm
16:27 12.0 °C 0.4 °C 1019.9 hPa SW 16.7 km/h 16.7 km/h 45 % 0.0 mm
16:32 11.9 °C 0.6 °C 1019.9 hPa ESE 13.0 km/h 13.0 km/h 46 % 0.0 mm
16:37 11.7 °C 0.4 °C 1019.9 hPa ESE 16.7 km/h 16.7 km/h 46 % 0.0 mm
16:42 11.7 °C 0.7 °C 1018.8 hPa NNE 20.4 km/h 20.4 km/h 47 % 0.0 mm
16:47 11.8 °C 0.8 °C 1018.8 hPa ESE 14.8 km/h 14.8 km/h 47 % 0.0 mm
16:52 11.8 °C 1.1 °C 1018.8 hPa ESE 18.5 km/h 18.5 km/h 48 % 0.0 mm
16:57 12.2 °C 1.5 °C 1018.8 hPa East 14.8 km/h 14.8 km/h 48 % 0.0 mm
17:02 12.2 °C 1.5 °C 1018.8 hPa NNW 16.1 km/h 16.1 km/h 48 % 0.0 mm
17:07 12.0 °C 1.3 °C 1018.8 hPa ESE 13.7 km/h 13.7 km/h 48 % 0.0 mm
17:12 11.8 °C 1.4 °C 1019.9 hPa NNE 13.7 km/h 13.7 km/h 49 % 0.0 mm
17:17 11.8 °C 1.4 °C 1019.9 hPa ESE 9.3 km/h 9.3 km/h 49 % 0.0 mm
17:22 11.9 °C 1.8 °C 1019.9 hPa ESE 13.0 km/h 13.0 km/h 50 % 0.0 mm
17:27 12.0 °C 1.9 °C 1019.9 hPa South 7.4 km/h 7.4 km/h 50 % 0.0 mm
17:32 11.9 °C 1.8 °C 1019.9 hPa ESE 9.3 km/h 9.3 km/h 50 % 0.0 mm
17:37 11.5 °C 1.7 °C 1019.9 hPa ESE 17.2 km/h 17.2 km/h 51 % 0.0 mm
17:42 11.4 °C 1.6 °C 1018.8 hPa ESE 11.1 km/h 11.1 km/h 51 % 0.0 mm
17:47 11.2 °C 1.4 °C 1018.8 hPa ESE 13.0 km/h 13.0 km/h 51 % 0.0 mm
17:52 11.2 °C 1.4 °C 1018.8 hPa ENE 9.3 km/h 9.3 km/h 51 % 0.0 mm
17:57 11.3 °C 1.8 °C 1019.9 hPa SSW 9.3 km/h 9.3 km/h 52 % 0.0 mm
18:02 11.2 °C 1.7 °C 1019.9 hPa ENE 11.1 km/h 11.1 km/h 52 % 0.0 mm
18:07 11.1 °C 1.6 °C 1019.9 hPa SSW 13.0 km/h 13.0 km/h 52 % 0.0 mm
18:12 11.0 °C 1.5 °C 1020.9 hPa ESE 13.0 km/h 13.0 km/h 52 % 0.0 mm
18:17 10.9 °C 1.7 °C 1020.9 hPa ENE 11.1 km/h 11.1 km/h 53 % 0.0 mm
18:22 10.9 °C 1.7 °C 1020.9 hPa ESE 9.3 km/h 9.3 km/h 53 % 0.0 mm
18:27 10.8 °C 1.6 °C 1020.9 hPa ESE 9.0 km/h 9.0 km/h 53 % 0.0 mm
18:32 10.8 °C 1.6 °C 1020.9 hPa East 11.1 km/h 11.1 km/h 53 % 0.0 mm
18:37 10.6 °C 1.4 °C 1020.9 hPa SE 13.0 km/h 13.0 km/h 53 % 0.0 mm
18:42 10.6 °C 1.7 °C 1020.9 hPa ESE 5.6 km/h 5.6 km/h 54 % 0.0 mm
18:47 10.5 °C 1.6 °C 1020.9 hPa ESE 12.6 km/h 12.6 km/h 54 % 0.0 mm
18:52 10.4 °C 1.5 °C 1020.9 hPa East 9.3 km/h 9.3 km/h 54 % 0.0 mm
18:57 10.3 °C 1.7 °C 1021.9 hPa SE 9.3 km/h 9.3 km/h 55 % 0.0 mm
19:02 10.3 °C 1.7 °C 1021.9 hPa East 13.7 km/h 13.7 km/h 55 % 0.0 mm
19:07 10.2 °C 1.8 °C 1021.9 hPa ENE 9.0 km/h 9.0 km/h 56 % 0.0 mm
19:12 10.1 °C 1.7 °C 1020.9 hPa ENE 9.3 km/h 9.3 km/h 56 % 0.0 mm
19:17 10.0 °C 1.6 °C 1020.9 hPa East 9.3 km/h 9.3 km/h 56 % 0.0 mm
19:27 10.0 °C 1.9 °C 1020.9 hPa ENE 11.1 km/h 11.1 km/h 57 % 0.0 mm
19:32 9.9 °C 1.8 °C 1020.9 hPa East 9.3 km/h 9.3 km/h 57 % 0.0 mm
19:42 9.8 °C 1.9 °C 1020.9 hPa ENE 7.4 km/h 7.4 km/h 58 % 0.0 mm
19:47 9.8 °C 1.9 °C 1020.9 hPa ESE 9.3 km/h 9.3 km/h 58 % 0.0 mm
19:52 9.7 °C 1.8 °C 1020.9 hPa East 9.3 km/h 9.3 km/h 58 % 0.0 mm
19:57 9.7 °C 1.8 °C 1020.9 hPa East 7.4 km/h 7.4 km/h 58 % 0.0 mm
20:02 9.7 °C 2.1 °C 1020.9 hPa ESE 5.6 km/h 5.6 km/h 59 % 0.0 mm
20:07 9.6 °C 1.9 °C 1020.9 hPa ESE 7.4 km/h 7.4 km/h 59 % 0.0 mm
20:12 9.6 °C 1.9 °C 1021.9 hPa East 9.3 km/h 9.3 km/h 59 % 0.0 mm
20:17 9.6 °C 1.9 °C 1021.9 hPa East 5.6 km/h 5.6 km/h 59 % 0.0 mm
20:22 9.6 °C 1.9 °C 1021.9 hPa NNE 5.6 km/h 5.6 km/h 59 % 0.0 mm
20:27 9.6 °C 1.9 °C 1021.9 hPa East 3.9 km/h 3.9 km/h 59 % 0.0 mm
20:32 9.6 °C 1.9 °C 1021.9 hPa ESE 5.3 km/h 5.3 km/h 59 % 0.0 mm
20:37 9.5 °C 2.1 °C 1021.9 hPa ENE 3.7 km/h 3.7 km/h 60 % 0.0 mm
20:42 9.5 °C 2.1 °C 1021.9 hPa ENE 3.7 km/h   60 % 0.0 mm
20:47 9.4 °C 2.0 °C 1021.9 hPa ENE 3.7 km/h 3.7 km/h 60 % 0.0 mm
20:52 9.4 °C 2.0 °C 1021.9 hPa ENE 3.7 km/h 3.7 km/h 60 % 0.0 mm
20:57 9.4 °C 2.0 °C 1021.9 hPa ENE 1.9 km/h 1.9 km/h 60 % 0.0 mm
21:02 9.4 °C 2.0 °C 1021.9 hPa ENE 1.9 km/h 1.9 km/h 60 % 0.0 mm
21:12 9.3 °C 1.9 °C 1021.9 hPa NNE 1.9 km/h   60 % 0.0 mm
21:17 9.3 °C 1.9 °C 1021.9 hPa ENE 1.9 km/h   60 % 0.0 mm
21:22 9.3 °C 1.9 °C 1021.9 hPa NE 3.7 km/h 3.7 km/h 60 % 0.0 mm
21:27 9.3 °C 1.9 °C 1021.9 hPa NE 3.2 km/h 3.2 km/h 60 % 0.0 mm
21:30 5.8 °C 0.3 °C 1019.9 hPa ENE 1.6 km/h 3.2 km/h 68 % 0.0 mm
21:32 9.4 °C 2.0 °C 1021.9 hPa ENE 1.9 km/h 2.3 km/h 60 % 0.0 mm
21:37 9.4 °C 2.0 °C 1021.9 hPa Calm     60 % 0.0 mm
21:40 5.6 °C 0.2 °C 1019.9 hPa East 1.6 km/h 4.8 km/h 68 % 0.0 mm
21:42 9.4 °C 2.0 °C 1021.9 hPa ENE 1.4 km/h   60 % 0.0 mm
21:47 9.4 °C 2.0 °C 1021.9 hPa ENE 1.9 km/h 1.9 km/h 60 % 0.0 mm
21:50 5.3 °C -0.1 °C 1019.9 hPa Calm   3.2 km/h 68 % 0.0 mm
21:52 9.4 °C 2.0 °C 1021.9 hPa ENE 1.9 km/h   60 % 0.0 mm
21:57 9.4 °C 2.0 °C 1021.9 hPa NE 1.9 km/h 1.9 km/h 60 % 0.0 mm
22:00 5.1 °C -0.6 °C 1019.9 hPa East 1.6 km/h 4.8 km/h 67 % 0.0 mm
22:02 9.4 °C 2.0 °C 1021.9 hPa Calm     60 % 0.0 mm
22:07 9.4 °C 2.0 °C 1021.9 hPa Calm     60 % 0.0 mm
22:10 4.6 °C -1.0 °C 1019.9 hPa SSW 3.2 km/h 3.2 km/h 67 % 0.0 mm
22:12 9.4 °C 2.0 °C 1021.9 hPa Calm     60 % 0.0 mm
22:17 9.3 °C 1.9 °C 1021.9 hPa Calm     60 % 0.0 mm
22:20 4.6 °C -0.6 °C 1019.9 hPa Calm   3.2 km/h 69 % 0.0 mm
22:22 9.4 °C 2.0 °C 1021.9 hPa ENE 2.6 km/h 2.6 km/h 60 % 0.0 mm
22:27 9.4 °C 2.0 °C 1021.9 hPa NE 2.3 km/h 2.3 km/h 60 % 0.0 mm
22:30 4.6 °C -0.2 °C 1019.9 hPa SW 1.6 km/h 1.6 km/h 71 % 0.0 mm
22:32 9.4 °C 2.0 °C 1021.9 hPa NE 1.9 km/h   60 % 0.0 mm
22:37 9.3 °C 1.9 °C 1021.9 hPa Calm     60 % 0.0 mm
22:42 9.2 °C 1.8 °C 1021.9 hPa Calm     60 % 0.0 mm
22:47 9.1 °C 1.7 °C 1021.9 hPa SW 3.7 km/h 3.7 km/h 60 % 0.0 mm
22:50 5.0 °C 0.2 °C 1019.9 hPa NNE 1.6 km/h 3.2 km/h 71 % 0.0 mm
22:52 8.8 °C 1.4 °C 1021.9 hPa SW 3.7 km/h 3.7 km/h 60 % 0.0 mm
22:57 8.8 °C 1.4 °C 1021.9 hPa WSW 3.7 km/h 3.7 km/h 60 % 0.0 mm
23:00 5.1 °C 0.3 °C 1019.9 hPa Calm   3.2 km/h 71 % 0.0 mm
23:02 8.7 °C 1.6 °C 1021.9 hPa Calm     61 % 0.0 mm
23:07 8.6 °C 1.5 °C 1021.9 hPa Calm     61 % 0.0 mm
23:10 5.1 °C 0.1 °C 1019.9 hPa Calm   3.2 km/h 70 % 0.0 mm
23:12 8.5 °C 1.4 °C 1021.9 hPa Calm     61 % 0.0 mm
23:17 8.5 °C 1.4 °C 1021.9 hPa Calm     61 % 0.0 mm
23:20 5.0 °C 0.0 °C 1019.9 hPa Calm   3.2 km/h 70 % 0.0 mm
23:22 8.5 °C 1.4 °C 1021.9 hPa Calm     61 % 0.0 mm
23:27 8.5 °C 1.4 °C 1021.9 hPa Calm     61 % 0.0 mm
23:30 4.9 °C -0.1 °C 1019.9 hPa NE 1.6 km/h 3.2 km/h 70 % 0.0 mm
23:40 4.8 °C -0.2 °C 1019.9 hPa NNE 1.6 km/h 3.2 km/h 70 % 0.0 mm
23:50 4.6 °C -0.6 °C 1019.9 hPa NE 1.6 km/h 3.2 km/h 69 % 0.0 mm
Meteo Sesrovires
Elogis d' Weather Underground - 3.25 mb

Guio original per  Jim McMurry - jmcmurry@mwt.net Adaptat per a la plantilla per  Wim van der Kuil - Leuven-Template.eu

Trobareu la nostra informacio del temps tambe a:

Weather Underground

AWEKAS